createdAt,value
2019-04-20T00:00:14.996Z,33.0
2019-04-20T00:03:15.840Z,33.1
2019-04-20T00:06:15.341Z,33.2
2019-04-20T00:09:19.403Z,33.3
2019-04-20T00:12:20.309Z,33.3
2019-04-20T00:15:15.598Z,33.1
2019-04-20T00:18:16.866Z,32.8
2019-04-20T00:21:16.440Z,33.1
2019-04-20T00:24:20.223Z,32.9
2019-04-20T00:27:37.106Z,33.8
2019-04-20T00:30:31.564Z,33.6
2019-04-20T00:33:34.966Z,32.9
2019-04-20T00:36:16.108Z,33.8
2019-04-20T00:39:16.824Z,33.0
2019-04-20T00:42:16.787Z,33.2
2019-04-20T00:45:19.091Z,33.5
2019-04-20T00:48:22.442Z,32.9
2019-04-20T00:51:32.689Z,33.1
2019-04-20T00:54:15.975Z,33.0
2019-04-20T00:57:24.466Z,33.0
2019-04-20T01:00:31.055Z,33.0
2019-04-20T01:03:31.392Z,32.9
2019-04-20T01:06:26.988Z,33.0
2019-04-20T01:09:16.042Z,32.9
2019-04-20T01:12:20.822Z,33.0
2019-04-20T01:15:25.596Z,33.1
2019-04-20T01:18:15.819Z,33.1
2019-04-20T01:21:20.272Z,33.1
2019-04-20T01:24:21.764Z,33.3
2019-04-20T01:27:28.336Z,33.3
2019-04-20T01:30:25.152Z,33.4
2019-04-20T01:33:26.035Z,33.4
2019-04-20T01:36:36.792Z,33.3
2019-04-20T01:39:25.288Z,33.4
2019-04-20T01:42:15.169Z,33.3
2019-04-20T01:45:23.566Z,33.4
2019-04-20T01:48:20.546Z,33.3
2019-04-20T01:51:22.098Z,33.3
2019-04-20T01:54:29.679Z,33.5
2019-04-20T01:57:21.901Z,33.5
2019-04-20T02:00:23.390Z,33.4
2019-04-20T02:03:17.015Z,33.3
2019-04-20T02:06:18.816Z,33.3
2019-04-20T02:09:20.478Z,33.3
2019-04-20T02:12:19.107Z,33.3
2019-04-20T02:15:24.490Z,33.3
2019-04-20T02:18:28.185Z,33.2
2019-04-20T02:21:31.689Z,33.3
2019-04-20T02:24:16.424Z,33.8
2019-04-20T02:27:19.722Z,33.3
2019-04-20T02:33:54.327Z,33.2
2019-04-20T02:39:51.208Z,33.2
2019-04-20T02:42:44.576Z,33.2
2019-04-20T02:45:47.270Z,33.2
2019-04-20T02:48:53.580Z,33.3
2019-04-20T02:51:46.825Z,33.6
2019-04-20T02:54:46.448Z,33.4
2019-04-20T02:57:44.145Z,33.3
2019-04-20T03:00:40.855Z,33.3
2019-04-20T03:03:25.247Z,33.2
2019-04-20T03:06:26.370Z,33.5
2019-04-20T03:09:36.407Z,33.5
2019-04-20T03:12:38.578Z,33.4
2019-04-20T03:15:38.227Z,33.7
2019-04-20T03:18:35.102Z,33.8
2019-04-20T03:21:33.331Z,33.2
2019-04-20T03:24:37.605Z,33.6
2019-04-20T03:27:31.108Z,33.2
2019-04-20T03:31:16.305Z,33.4
2019-04-20T03:36:41.488Z,34.0
2019-04-20T03:39:33.468Z,34.9
2019-04-20T03:42:16.005Z,33.9
2019-04-20T03:45:18.401Z,34.1
2019-04-20T03:48:32.263Z,34.7
2019-04-20T03:54:24.736Z,34.7
2019-04-20T03:57:31.123Z,34.8
2019-04-20T04:00:31.951Z,34.8
2019-04-20T04:03:41.020Z,35.0
2019-04-20T04:06:24.222Z,35.0
2019-04-20T04:09:25.786Z,35.0
2019-04-20T04:12:25.172Z,36.1
2019-04-20T04:15:16.756Z,35.0
2019-04-20T04:18:21.885Z,35.8
2019-04-20T04:21:21.766Z,35.8
2019-04-20T04:24:27.223Z,36.0
2019-04-20T04:27:37.393Z,36.3
2019-04-20T04:30:31.056Z,37.1
2019-04-20T04:36:30.717Z,37.1
2019-04-20T04:39:36.511Z,36.5
2019-04-20T04:42:28.123Z,37.4
2019-04-20T04:45:17.573Z,37.0
2019-04-20T04:48:23.933Z,36.9
2019-04-20T04:51:21.262Z,37.1
2019-04-20T04:54:26.761Z,37.1
2019-04-20T04:57:15.794Z,36.6
2019-04-20T05:00:20.575Z,36.2
2019-04-20T05:03:35.857Z,36.1
2019-04-20T05:06:32.075Z,35.3
2019-04-20T05:09:17.689Z,34.3
2019-04-20T05:12:18.759Z,33.3
2019-04-20T05:15:29.727Z,32.1
2019-04-20T05:21:29.834Z,30.1
2019-04-20T05:24:25.559Z,29.3
2019-04-20T05:27:34.816Z,28.5
2019-04-20T05:30:16.023Z,27.6
2019-04-20T05:33:25.473Z,26.5
2019-04-20T05:36:28.132Z,25.4
2019-04-20T05:39:38.443Z,25.5
2019-04-20T05:42:35.884Z,24.3
2019-04-20T05:45:32.336Z,24.1
2019-04-20T05:48:25.882Z,23.4
2019-04-20T05:51:38.297Z,22.9
2019-04-20T05:54:39.051Z,22.3
2019-04-20T05:57:38.253Z,21.9
2019-04-20T06:00:40.619Z,21.6
2019-04-20T06:06:37.953Z,20.7
2019-04-20T06:09:33.869Z,20.3
2019-04-20T06:12:36.145Z,20.3
2019-04-20T06:15:40.753Z,20.3
2019-04-20T06:18:32.798Z,20.3
2019-04-20T06:21:37.973Z,20.6
2019-04-20T06:30:30.870Z,18.4
2019-04-20T06:33:52.045Z,18.0
2019-04-20T06:36:41.388Z,17.8
2019-04-20T06:39:40.724Z,18.0
2019-04-20T06:42:35.770Z,18.0
2019-04-20T06:45:45.816Z,16.2
2019-04-20T06:48:44.495Z,15.6
2019-04-20T06:51:40.348Z,14.9
2019-04-20T06:54:36.139Z,13.8
2019-04-20T06:57:31.037Z,13.2
2019-04-20T07:00:35.120Z,12.8
2019-04-20T07:09:49.615Z,12.9
2019-04-20T07:12:33.340Z,13.2
2019-04-20T07:15:29.235Z,13.4
2019-04-20T07:21:56.234Z,14.8
2019-04-20T07:24:43.146Z,16.0
2019-04-20T07:27:34.950Z,16.9
2019-04-20T07:30:35.524Z,17.8
2019-04-20T07:36:37.826Z,18.0
2019-04-20T07:39:40.217Z,17.9
2019-04-20T07:45:33.182Z,17.8
2019-04-20T07:48:29.575Z,18.2
2019-04-20T07:51:23.137Z,17.7
2019-04-20T07:57:31.056Z,18.1
2019-04-20T08:00:44.248Z,18.0
2019-04-20T08:03:38.112Z,17.6
2019-04-20T08:06:22.057Z,17.0
2019-04-20T08:09:28.085Z,16.4
2019-04-20T08:12:42.039Z,15.7
2019-04-20T08:15:42.956Z,14.4
2019-04-20T08:18:41.280Z,15.1
2019-04-20T08:21:35.223Z,15.1
2019-04-20T08:24:32.766Z,14.6
2019-04-20T08:27:16.616Z,14.2
2019-04-20T08:30:33.851Z,13.7
2019-04-20T08:33:30.926Z,13.0
2019-04-20T08:36:41.217Z,12.8
2019-04-20T08:39:45.423Z,11.8
2019-04-20T08:42:29.875Z,11.9
2019-04-20T08:48:28.683Z,11.8
2019-04-20T08:51:31.714Z,11.7
2019-04-20T08:54:26.438Z,11.4
2019-04-20T08:57:15.816Z,11.4
2019-04-20T09:00:18.309Z,11.5
2019-04-20T09:03:20.159Z,11.1
2019-04-20T09:06:32.277Z,11.2
2019-04-20T09:09:44.580Z,11.0
2019-04-20T09:12:31.930Z,10.7
2019-04-20T09:15:16.731Z,10.5
2019-04-20T09:18:24.185Z,10.1
2019-04-20T09:21:24.334Z,10.6
2019-04-20T09:24:36.186Z,10.7
2019-04-20T09:27:27.001Z,10.9
2019-04-20T09:30:30.592Z,11.4
2019-04-20T09:33:33.715Z,10.5
2019-04-20T09:36:27.641Z,10.3
2019-04-20T09:39:21.421Z,10.9
2019-04-20T09:42:15.958Z,10.9
2019-04-20T09:45:23.199Z,10.5
2019-04-20T09:48:23.229Z,10.1
2019-04-20T09:51:30.683Z,10.0
2019-04-20T09:54:27.101Z,10.2
2019-04-20T09:57:33.931Z,9.5
2019-04-20T10:00:29.116Z,9.3
2019-04-20T10:03:16.503Z,9.8
2019-04-20T10:06:17.951Z,10.2
2019-04-20T10:09:19.432Z,10.3
2019-04-20T10:12:15.835Z,9.6
2019-04-20T10:15:19.924Z,9.1
2019-04-20T10:18:15.314Z,9.1
2019-04-20T10:21:15.902Z,8.3
2019-04-20T10:24:16.696Z,8.0
2019-04-20T10:27:16.700Z,8.6
2019-04-20T10:30:16.601Z,9.0
2019-04-20T10:33:15.531Z,8.8
2019-04-20T10:36:15.438Z,9.0
2019-04-20T10:39:16.383Z,9.1
2019-04-20T10:42:16.364Z,8.9
2019-04-20T10:45:17.036Z,9.1
2019-04-20T10:48:15.592Z,9.4
2019-04-20T10:51:17.648Z,9.4
2019-04-20T10:54:16.373Z,9.4
2019-04-20T10:57:17.355Z,9.4
2019-04-20T11:00:15.920Z,9.2
2019-04-20T11:03:15.862Z,9.4
2019-04-20T11:06:16.467Z,9.1
2019-04-20T11:09:16.535Z,8.7
2019-04-20T11:12:16.624Z,9.4
2019-04-20T11:15:16.573Z,9.8
2019-04-20T11:18:17.661Z,10.0
2019-04-20T11:21:17.394Z,10.4
2019-04-20T11:24:16.418Z,10.0
2019-04-20T11:27:16.347Z,9.9
2019-04-20T11:30:16.285Z,9.3
2019-04-20T11:33:16.154Z,9.0
2019-04-20T11:36:17.103Z,9.2
2019-04-20T11:39:16.833Z,9.9
2019-04-20T11:42:15.625Z,10.0
2019-04-20T11:45:16.152Z,10.1
2019-04-20T11:48:16.146Z,11.2
2019-04-20T11:51:15.831Z,12.3
2019-04-20T11:54:16.345Z,12.5
2019-04-20T11:57:15.422Z,12.9
2019-04-20T12:00:17.165Z,13.2
2019-04-20T12:03:23.703Z,13.4
2019-04-20T12:06:15.371Z,13.5
2019-04-20T12:09:15.145Z,13.7
2019-04-20T12:12:24.346Z,13.7
2019-04-20T12:15:15.230Z,13.4
2019-04-20T12:18:15.819Z,13.6
2019-04-20T12:21:15.193Z,13.7
2019-04-20T12:24:16.403Z,13.8
2019-04-20T12:27:16.668Z,14.1
2019-04-20T12:30:15.495Z,13.8
2019-04-20T12:33:15.837Z,14.2
2019-04-20T12:36:16.315Z,14.6
2019-04-20T12:39:15.574Z,14.7
2019-04-20T12:42:16.907Z,15.1
2019-04-20T12:45:15.750Z,15.0
2019-04-20T12:48:15.622Z,15.0
2019-04-20T12:51:15.915Z,15.4
2019-04-20T12:54:16.589Z,14.9
2019-04-20T12:57:16.556Z,14.9
2019-04-20T13:00:15.578Z,15.0
2019-04-20T13:03:15.314Z,14.8
2019-04-20T13:06:16.257Z,14.0
2019-04-20T13:09:16.753Z,14.5
2019-04-20T13:12:15.539Z,15.2
2019-04-20T13:15:16.099Z,15.4
2019-04-20T13:18:15.232Z,15.3
2019-04-20T13:21:16.752Z,15.5
2019-04-20T13:24:15.089Z,15.5
2019-04-20T13:27:16.743Z,15.2
2019-04-20T13:30:16.582Z,15.2
2019-04-20T13:33:15.666Z,15.1
2019-04-20T13:36:16.505Z,15.4
2019-04-20T13:39:16.194Z,14.5
2019-04-20T13:42:19.097Z,14.9
2019-04-20T13:45:17.016Z,14.6
2019-04-20T13:48:16.917Z,14.8
2019-04-20T13:51:16.763Z,14.7
2019-04-20T13:54:18.872Z,14.8
2019-04-20T13:57:15.615Z,14.9
2019-04-20T14:00:15.857Z,14.9
2019-04-20T14:03:16.378Z,15.0
2019-04-20T14:06:16.596Z,14.8
2019-04-20T14:09:15.362Z,14.8
2019-04-20T14:12:22.532Z,14.5
2019-04-20T14:15:15.766Z,14.6
2019-04-20T14:18:15.637Z,14.1
2019-04-20T14:21:16.353Z,14.3
2019-04-20T14:24:17.100Z,13.9
2019-04-20T14:27:15.481Z,13.9
2019-04-20T14:30:15.510Z,14.2
2019-04-20T14:33:16.676Z,14.2
2019-04-20T14:36:15.324Z,14.1
2019-04-20T14:39:16.169Z,13.9
2019-04-20T14:42:29.258Z,13.7
2019-04-20T14:45:16.361Z,14.0
2019-04-20T14:48:16.399Z,13.9
2019-04-20T14:51:15.765Z,13.9
2019-04-20T14:54:15.413Z,13.7
2019-04-20T14:57:15.259Z,13.7
2019-04-20T15:00:15.413Z,13.8
2019-04-20T15:03:16.211Z,14.0
2019-04-20T15:06:15.763Z,13.6
2019-04-20T15:09:16.901Z,13.7
2019-04-20T15:12:15.154Z,13.9
2019-04-20T15:15:16.710Z,13.9
2019-04-20T15:18:15.548Z,13.9
2019-04-20T15:21:15.456Z,13.8
2019-04-20T15:24:15.991Z,13.8
2019-04-20T15:27:16.256Z,13.9
2019-04-20T15:30:16.257Z,14.1
2019-04-20T15:33:16.873Z,14.4
2019-04-20T15:36:15.939Z,14.5
2019-04-20T15:39:15.186Z,14.6
2019-04-20T15:42:15.185Z,14.9
2019-04-20T15:45:15.679Z,15.0
2019-04-20T15:48:16.330Z,15.1
2019-04-20T15:51:17.151Z,15.0
2019-04-20T15:54:15.776Z,14.9
2019-04-20T15:57:19.645Z,15.1
2019-04-20T16:00:16.214Z,15.1
2019-04-20T16:03:15.497Z,15.3
2019-04-20T16:06:16.942Z,15.3
2019-04-20T16:09:15.684Z,15.3
2019-04-20T16:12:15.367Z,15.3
2019-04-20T16:15:15.780Z,15.2
2019-04-20T16:18:15.152Z,15.6
2019-04-20T16:21:21.920Z,15.3
2019-04-20T16:24:16.892Z,15.2
2019-04-20T16:27:15.721Z,15.2
2019-04-20T16:30:15.764Z,15.5
2019-04-20T16:33:15.090Z,15.4
2019-04-20T16:36:16.434Z,15.5
2019-04-20T16:39:16.397Z,15.5
2019-04-20T16:42:16.203Z,15.5
2019-04-20T16:45:17.060Z,15.6
2019-04-20T16:48:16.001Z,15.8
2019-04-20T16:51:15.102Z,15.7
2019-04-20T16:54:15.753Z,15.8
2019-04-20T16:57:17.067Z,15.8
2019-04-20T17:00:15.629Z,15.8
2019-04-20T17:03:15.352Z,15.8
2019-04-20T17:06:15.969Z,15.9
2019-04-20T17:09:15.773Z,15.9
2019-04-20T17:12:15.939Z,15.9
2019-04-20T17:15:15.837Z,15.9
2019-04-20T17:18:15.892Z,16.0
2019-04-20T17:21:22.787Z,16.2
2019-04-20T17:24:15.577Z,16.2
2019-04-20T17:27:17.018Z,16.3
2019-04-20T17:30:19.531Z,16.3
2019-04-20T17:33:16.004Z,16.4
2019-04-20T17:36:22.773Z,16.5
2019-04-20T17:39:26.105Z,16.7
2019-04-20T17:42:30.698Z,16.8
2019-04-20T17:45:28.768Z,17.0
2019-04-20T17:48:28.014Z,17.0
2019-04-20T17:51:27.754Z,17.1
2019-04-20T17:54:16.022Z,17.2
2019-04-20T17:57:15.543Z,17.3
2019-04-20T18:00:17.280Z,17.4
2019-04-20T18:03:50.974Z,17.5
2019-04-20T18:06:31.586Z,17.6
2019-04-20T18:09:38.630Z,17.8
2019-04-20T18:12:25.791Z,18.0
2019-04-20T18:15:29.475Z,18.0
2019-04-20T18:18:28.323Z,18.1
2019-04-20T18:21:15.162Z,18.2
2019-04-20T18:24:31.534Z,18.5
2019-04-20T18:30:27.170Z,19.0
2019-04-20T18:33:18.836Z,18.8
2019-04-20T18:36:23.351Z,18.9
2019-04-20T18:39:18.088Z,19.2
2019-04-20T18:42:23.407Z,19.1
2019-04-20T18:45:29.591Z,19.3
2019-04-20T18:48:37.863Z,19.5
2019-04-20T18:51:15.512Z,19.5
2019-04-20T18:54:21.295Z,19.6
2019-04-20T18:57:19.640Z,19.9
2019-04-20T19:00:22.983Z,20.1
2019-04-20T19:03:25.246Z,20.7
2019-04-20T19:06:16.081Z,20.6
2019-04-20T19:09:21.498Z,21.4
2019-04-20T19:12:16.544Z,21.0
2019-04-20T19:15:37.322Z,21.5
2019-04-20T19:18:25.956Z,21.7
2019-04-20T19:21:15.690Z,22.1
2019-04-20T19:24:18.479Z,22.2
2019-04-20T19:27:17.315Z,22.8
2019-04-20T19:30:28.366Z,22.9
2019-04-20T19:33:31.040Z,23.2
2019-04-20T19:36:27.820Z,22.9
2019-04-20T19:39:30.328Z,23.7
2019-04-20T19:42:31.076Z,23.4
2019-04-20T19:45:34.569Z,23.5
2019-04-20T19:48:24.064Z,23.8
2019-04-20T19:51:32.972Z,23.5
2019-04-20T19:54:34.507Z,23.9
2019-04-20T19:57:31.058Z,24.2
2019-04-20T20:00:16.624Z,25.0
2019-04-20T20:03:15.478Z,24.8
2019-04-20T20:06:24.392Z,24.7
2019-04-20T20:09:17.817Z,25.1
2019-04-20T20:12:17.900Z,24.3
2019-04-20T20:15:23.731Z,25.4
2019-04-20T20:21:31.558Z,26.2
2019-04-20T20:24:17.412Z,25.6
2019-04-20T20:30:24.469Z,25.1
2019-04-20T20:33:27.931Z,24.9
2019-04-20T20:36:20.229Z,25.5
2019-04-20T20:39:21.356Z,25.4
2019-04-20T20:42:28.343Z,25.8
2019-04-20T20:45:27.257Z,26.3
2019-04-20T20:48:34.017Z,26.0
2019-04-20T20:51:39.129Z,26.0
2019-04-20T20:57:20.661Z,26.3
2019-04-20T21:00:29.416Z,25.8
2019-04-20T21:03:22.525Z,26.0
2019-04-20T21:06:18.859Z,26.2
2019-04-20T21:09:16.647Z,26.7
2019-04-20T21:12:18.063Z,26.8
2019-04-20T21:15:20.975Z,27.1
2019-04-20T21:18:33.268Z,26.7
2019-04-20T21:21:21.879Z,27.3
2019-04-20T21:24:17.670Z,26.3
2019-04-20T21:27:18.213Z,26.6
2019-04-20T21:30:18.322Z,27.0
2019-04-20T21:33:16.781Z,26.9
2019-04-20T21:36:19.175Z,27.8
2019-04-20T21:39:26.253Z,27.2
2019-04-20T21:42:19.258Z,27.3
2019-04-20T21:45:23.055Z,27.1
2019-04-20T21:48:35.029Z,26.9
2019-04-20T21:51:29.303Z,27.4
2019-04-20T21:54:16.087Z,27.5
2019-04-20T21:57:16.524Z,26.8
2019-04-20T22:00:24.967Z,27.4
2019-04-20T22:03:16.918Z,27.7
2019-04-20T22:06:16.265Z,27.7
2019-04-20T22:09:15.310Z,27.4
2019-04-20T22:12:15.980Z,27.8
2019-04-20T22:15:19.756Z,28.1
2019-04-20T22:18:20.085Z,27.3
2019-04-20T22:21:24.804Z,27.5
2019-04-20T22:24:34.243Z,27.6
2019-04-20T22:27:21.086Z,27.4
2019-04-20T22:30:15.475Z,27.5
2019-04-20T22:33:16.621Z,27.8
2019-04-20T22:36:16.430Z,28.1
2019-04-20T22:39:15.752Z,27.8
2019-04-20T22:42:16.145Z,28.0
2019-04-20T22:45:16.997Z,27.9
2019-04-20T22:48:17.655Z,27.9
2019-04-20T22:54:34.573Z,28.1
2019-04-20T22:57:31.798Z,28.2
2019-04-20T23:00:23.638Z,28.2
2019-04-20T23:03:16.801Z,28.1
2019-04-20T23:06:16.587Z,28.3
2019-04-20T23:09:16.873Z,28.3
2019-04-20T23:12:20.718Z,28.3
2019-04-20T23:15:16.301Z,28.7
2019-04-20T23:18:15.994Z,28.6
2019-04-20T23:21:17.425Z,28.5
2019-04-20T23:24:16.781Z,28.8
2019-04-20T23:27:21.967Z,29.3
2019-04-20T23:30:22.711Z,28.8
2019-04-20T23:33:16.021Z,28.7
2019-04-20T23:36:19.318Z,28.9
2019-04-20T23:39:17.009Z,28.9
2019-04-20T23:42:16.083Z,28.9
2019-04-20T23:45:16.845Z,28.9
2019-04-20T23:48:16.199Z,29.0
2019-04-20T23:51:36.945Z,28.9
2019-04-20T23:54:22.022Z,29.0
2019-04-20T23:57:15.650Z,29.0
